NORTHEAST SUFFOLK  -  Winter Weather Advisory Winter Weather Advisory     Winter Weather Advisory Winter Weather Advisory        NORTHERN NASSAU  -  Winter Weather Advisory Winter Weather Advisory        NORTHWEST SUFFOLK  -  Winter Weather Advisory Winter Weather Advisory     Winter Weather Advisory Winter Weather Advisory        SOUTHEAST SUFFOLK  -  Winter Weather Advisory Winter Weather Advisory     Winter Weather Advisory Winter Weather Advisory        SOUTHERN NASSAU  -  Winter Weather Advisory Winter Weather Advisory        SOUTHWEST SUFFOLK  -  Winter Weather Advisory Winter Weather Advisory     Winter Weather Advisory Winter Weather Advisory      

Active alerts

Northern Nassau
  Details for Northern Nassau Winter Weather Advisory
Southern Nassau
  Details for Southern Nassau Winter Weather Advisory
Northwest Suffolk
  Details for Northwest Suffolk Winter Weather Advisory  +1 additional alert
Southwest Suffolk
  Details for Southwest Suffolk Winter Weather Advisory  +1 additional alert
Northeast Suffolk
  Details for Northeast Suffolk Winter Weather Advisory  +1 additional alert
Southeast Suffolk
  Details for Southeast Suffolk Winter Weather Advisory  +1 additional alert


WXM80 ListenWXM80 Stop

You find our weather info also at:

UK Metoffice

WeatherCloud

Weather Underground

Northeastern Weather Network

AWEKAS

Citizen Weather Observer Program (CWOP)

HAMweather, WeatherForYou, PWS Weather


Weather Underground History page Text

Daily Summary for April 18, 2017 Units:  Both    English   Metric
« Previous Day
Next Day »
Daily Weekly Monthly Yearly Custom
  High: Low: Average:
Temperature: 67.0 °F /  19.4 °C 45.8 °F /  7.7 °C 54.1 °F /  12.3 °C
Dew Point: 43.8 °F /  6.6 °C 35.4 °F /  1.9 °C 40.3 °F /  4.6 °C
Humidity: 82 % 37 % 61 %
Wind Speed: 9.7 mph /  15.6 km/h - 3.3 mph /  5.3 km/h
Wind Gust: 18.4 mph /  29.6 km/h - -
Wind:- - ESE
Pressure: 30.50 in /  1032.7 hPa 30.11 in /  1019.5 hPa -
Precipitation: 0.00 in /  0 mm    
Historical Graphs
 
 
Tabular Data for April 18, 2017
Time Temperature Dew Point Pressure Wind Wind Speed Wind Gust Humidity Rainfall Rate (Hourly)
00:04 57.1 °F /  13.9 °C 37.0 °F /  2.8 °C 30.11 in /  1019.5 hPa WNW 1.2 mph /  1.9 km/h 4.6 mph /  7.4 km/h 47 % 0.00 in /  0 mm
00:09 56.9 °F /  13.8 °C 36.9 °F /  2.7 °C 30.11 in /  1019.5 hPa WNW 2.1 mph /  3.4 km/h 7.0 mph /  11.3 km/h 47 % 0.00 in /  0 mm
00:14 56.6 °F /  13.7 °C 36.0 °F /  2.2 °C 30.12 in /  1019.9 hPa WNW 2.7 mph /  4.3 km/h 6.0 mph /  9.7 km/h 46 % 0.00 in /  0 mm
00:19 56.5 °F /  13.6 °C 35.4 °F /  1.9 °C 30.12 in /  1019.9 hPa NW 2.3 mph /  3.7 km/h 5.8 mph /  9.3 km/h 45 % 0.00 in /  0 mm
00:24 56.4 °F /  13.6 °C 35.9 °F /  2.2 °C 30.13 in /  1020.2 hPa WNW 2.3 mph /  3.7 km/h 3.5 mph /  5.6 km/h 46 % 0.00 in /  0 mm
00:29 56.3 °F /  13.5 °C 35.8 °F /  2.1 °C 30.12 in /  1019.9 hPa NW 1.7 mph /  2.7 km/h 5.0 mph /  8 km/h 46 % 0.00 in /  0 mm
00:34 56.2 °F /  13.4 °C 35.7 °F /  2.1 °C 30.12 in /  1019.9 hPa WNW 2.3 mph /  3.7 km/h 3.5 mph /  5.6 km/h 46 % 0.00 in /  0 mm
00:39 56.1 °F /  13.4 °C 36.1 °F /  2.3 °C 30.13 in /  1020.2 hPa NNW 2.7 mph /  4.3 km/h 5.0 mph /  8 km/h 47 % 0.00 in /  0 mm
00:44 55.9 °F /  13.3 °C 35.9 °F /  2.2 °C 30.12 in /  1019.9 hPa WNW 1.1 mph /  1.8 km/h 3.5 mph /  5.6 km/h 47 % 0.00 in /  0 mm
00:49 55.8 °F /  13.2 °C 36.4 °F /  2.4 °C 30.13 in /  1020.2 hPa NW 0.3 mph /  0.5 km/h 3.5 mph /  5.6 km/h 48 % 0.00 in /  0 mm
00:54 55.6 °F /  13.1 °C 35.7 °F /  2.1 °C 30.13 in /  1020.2 hPa Calm   4.6 mph /  7.4 km/h 47 % 0.00 in /  0 mm
00:59 55.5 °F /  13.1 °C 35.6 °F /  2 °C 30.13 in /  1020.2 hPa Calm   2.3 mph /  3.7 km/h 47 % 0.00 in /  0 mm
01:04 55.3 °F /  12.9 °C 35.4 °F /  1.9 °C 30.13 in /  1020.2 hPa Calm     47 % 0.00 in /  0 mm
01:09 55.1 °F /  12.8 °C 35.7 °F /  2.1 °C 30.13 in /  1020.2 hPa NW 0.1 mph /  0.2 km/h 1.2 mph /  1.9 km/h 48 % 0.00 in /  0 mm
01:14 55.0 °F /  12.8 °C 36.2 °F /  2.3 °C 30.13 in /  1020.2 hPa NW 1.1 mph /  1.8 km/h 3.5 mph /  5.6 km/h 49 % 0.00 in /  0 mm
01:19 54.8 °F /  12.7 °C 36.5 °F /  2.5 °C 30.13 in /  1020.2 hPa North 2.5 mph /  4 km/h 3.5 mph /  5.6 km/h 50 % 0.00 in /  0 mm
01:24 54.5 °F /  12.5 °C 36.2 °F /  2.3 °C 30.13 in /  1020.2 hPa NNW 0.9 mph /  1.4 km/h 5.8 mph /  9.3 km/h 50 % 0.00 in /  0 mm
01:29 54.2 °F /  12.3 °C 36.9 °F /  2.7 °C 30.13 in /  1020.2 hPa North 2.7 mph /  4.3 km/h 4.0 mph /  6.4 km/h 52 % 0.00 in /  0 mm
01:34 54.0 °F /  12.2 °C 37.7 °F /  3.2 °C 30.13 in /  1020.2 hPa North 3.9 mph /  6.3 km/h 6.9 mph /  11.1 km/h 54 % 0.00 in /  0 mm
01:39 53.7 °F /  12.1 °C 37.9 °F /  3.3 °C 30.14 in /  1020.5 hPa NNE 1.7 mph /  2.7 km/h 3.5 mph /  5.6 km/h 55 % 0.00 in /  0 mm
01:44 53.6 °F /  12 °C 38.7 °F /  3.7 °C 30.14 in /  1020.5 hPa NE 1.7 mph /  2.7 km/h 3.5 mph /  5.6 km/h 57 % 0.00 in /  0 mm
01:49 53.4 °F /  11.9 °C 39.4 °F /  4.1 °C 30.14 in /  1020.5 hPa NE 0.7 mph /  1.1 km/h 2.3 mph /  3.7 km/h 59 % 0.00 in /  0 mm
01:54 53.1 °F /  11.7 °C 38.7 °F /  3.7 °C 30.14 in /  1020.5 hPa North 3.8 mph /  6.1 km/h 6.9 mph /  11.1 km/h 58 % 0.00 in /  0 mm
01:59 52.9 °F /  11.6 °C 38.1 °F /  3.4 °C 30.14 in /  1020.5 hPa North 5.2 mph /  8.4 km/h 8.1 mph /  13 km/h 57 % 0.00 in /  0 mm
02:04 52.7 °F /  11.5 °C 37.4 °F /  3 °C 30.14 in /  1020.5 hPa NNE 2.5 mph /  4 km/h 4.6 mph /  7.4 km/h 56 % 0.00 in /  0 mm
02:09 52.6 °F /  11.4 °C 37.8 °F /  3.2 °C 30.14 in /  1020.5 hPa NE 0.8 mph /  1.3 km/h 2.3 mph /  3.7 km/h 57 % 0.00 in /  0 mm
02:14 52.4 °F /  11.3 °C 39.3 °F /  4.1 °C 30.14 in /  1020.5 hPa Calm   1.2 mph /  1.9 km/h 61 % 0.00 in /  0 mm
02:19 52.3 °F /  11.3 °C 39.7 °F /  4.3 °C 30.15 in /  1020.9 hPa Calm     62 % 0.00 in /  0 mm
02:24 52.1 °F /  11.2 °C 39.5 °F /  4.2 °C 30.15 in /  1020.9 hPa Calm     62 % 0.00 in /  0 mm
02:30 51.9 °F /  11.1 °C 39.7 °F /  4.3 °C 30.14 in /  1020.5 hPa Calm     63 % 0.00 in /  0 mm
02:35 51.7 °F /  10.9 °C 39.9 °F /  4.4 °C 30.15 in /  1020.9 hPa Calm     64 % 0.00 in /  0 mm
02:40 51.5 °F /  10.8 °C 39.7 °F /  4.3 °C 30.15 in /  1020.9 hPa Calm   1.2 mph /  1.9 km/h 64 % 0.00 in /  0 mm
02:45 51.4 °F /  10.8 °C 40.0 °F /  4.4 °C 30.16 in /  1021.2 hPa Calm     65 % 0.00 in /  0 mm
02:50 51.1 °F /  10.6 °C 40.1 °F /  4.5 °C 30.16 in /  1021.2 hPa Calm   1.2 mph /  1.9 km/h 66 % 0.00 in /  0 mm
02:55 50.9 °F /  10.5 °C 39.9 °F /  4.4 °C 30.16 in /  1021.2 hPa NNE 2.6 mph /  4.2 km/h 3.5 mph /  5.6 km/h 66 % 0.00 in /  0 mm
03:00 50.7 °F /  10.4 °C 40.1 °F /  4.5 °C 30.16 in /  1021.2 hPa NNE 1.4 mph /  2.3 km/h 3.5 mph /  5.6 km/h 67 % 0.00 in /  0 mm
03:05 50.5 °F /  10.3 °C 40.3 °F /  4.6 °C 30.16 in /  1021.2 hPa NNE 0.6 mph /  1 km/h 4.6 mph /  7.4 km/h 68 % 0.00 in /  0 mm
03:10 50.3 °F /  10.2 °C 40.5 °F /  4.7 °C 30.17 in /  1021.6 hPa NNE 1.5 mph /  2.4 km/h 3.5 mph /  5.6 km/h 69 % 0.00 in /  0 mm
03:15 50.1 °F /  10.1 °C 40.3 °F /  4.6 °C 30.17 in /  1021.6 hPa NNE 2.3 mph /  3.7 km/h 3.5 mph /  5.6 km/h 69 % 0.00 in /  0 mm
03:20 49.9 °F /  9.9 °C 40.1 °F /  4.5 °C 30.17 in /  1021.6 hPa NNE 2.5 mph /  4 km/h 3.5 mph /  5.6 km/h 69 % 0.00 in /  0 mm
03:25 49.7 °F /  9.8 °C 39.6 °F /  4.2 °C 30.18 in /  1021.9 hPa NNE 2.0 mph /  3.2 km/h 3.5 mph /  5.6 km/h 68 % 0.00 in /  0 mm
03:30 49.6 °F /  9.8 °C 39.8 °F /  4.3 °C 30.18 in /  1021.9 hPa NNE 1.6 mph /  2.6 km/h 3.5 mph /  5.6 km/h 69 % 0.00 in /  0 mm
03:35 49.5 °F /  9.7 °C 39.7 °F /  4.3 °C 30.18 in /  1021.9 hPa NNE 2.2 mph /  3.5 km/h 3.5 mph /  5.6 km/h 69 % 0.00 in /  0 mm
03:40 49.4 °F /  9.7 °C 39.7 °F /  4.3 °C 30.18 in /  1021.9 hPa NNE 1.3 mph /  2.1 km/h 3.5 mph /  5.6 km/h 69 % 0.00 in /  0 mm
03:45 49.3 °F /  9.6 °C 39.6 °F /  4.2 °C 30.18 in /  1021.9 hPa NNE 2.0 mph /  3.2 km/h 3.5 mph /  5.6 km/h 69 % 0.00 in /  0 mm
03:50 49.2 °F /  9.6 °C 40.2 °F /  4.6 °C 30.19 in /  1022.2 hPa NNE 4.2 mph /  6.8 km/h 7.0 mph /  11.3 km/h 71 % 0.00 in /  0 mm
03:55 49.1 °F /  9.5 °C 39.7 °F /  4.3 °C 30.19 in /  1022.2 hPa NNE 5.4 mph /  8.7 km/h 8.1 mph /  13 km/h 70 % 0.00 in /  0 mm
04:01 49.1 °F /  9.5 °C 40.1 °F /  4.5 °C 30.19 in /  1022.2 hPa NNE 5.7 mph /  9.2 km/h 10.4 mph /  16.7 km/h 71 % 0.00 in /  0 mm
04:06 49.1 °F /  9.5 °C 39.7 °F /  4.3 °C 30.19 in /  1022.2 hPa North 5.8 mph /  9.3 km/h 8.1 mph /  13 km/h 70 % 0.00 in /  0 mm
04:11 49.2 °F /  9.6 °C 39.1 °F /  3.9 °C 30.20 in /  1022.6 hPa NNE 5.0 mph /  8 km/h 9.2 mph /  14.8 km/h 68 % 0.00 in /  0 mm
04:15 49.2 °F /  9.6 °C 39.5 °F /  4.2 °C 30.19 in /  1022.2 hPa North 3.3 mph /  5.3 km/h 5.8 mph /  9.3 km/h 69 % 0.00 in /  0 mm
04:20 49.2 °F /  9.6 °C 39.5 °F /  4.2 °C 30.20 in /  1022.6 hPa NNE 4.8 mph /  7.7 km/h 6.9 mph /  11.1 km/h 69 % 0.00 in /  0 mm
04:25 49.3 °F /  9.6 °C 39.9 °F /  4.4 °C 30.20 in /  1022.6 hPa NE 4.6 mph /  7.4 km/h 6.9 mph /  11.1 km/h 70 % 0.00 in /  0 mm
04:30 49.2 °F /  9.6 °C 39.5 °F /  4.2 °C 30.20 in /  1022.6 hPa North 5.7 mph /  9.2 km/h 8.1 mph /  13 km/h 69 % 0.00 in /  0 mm
04:36 49.2 °F /  9.6 °C 39.5 °F /  4.2 °C 30.20 in /  1022.6 hPa North 5.9 mph /  9.5 km/h 7.0 mph /  11.3 km/h 69 % 0.00 in /  0 mm
04:41 49.2 °F /  9.6 °C 39.8 °F /  4.3 °C 30.21 in /  1022.9 hPa NNE 5.3 mph /  8.5 km/h 8.1 mph /  13 km/h 70 % 0.00 in /  0 mm
04:46 49.2 °F /  9.6 °C 40.2 °F /  4.6 °C 30.21 in /  1022.9 hPa NNE 4.5 mph /  7.2 km/h 5.8 mph /  9.3 km/h 71 % 0.00 in /  0 mm
04:51 49.1 °F /  9.5 °C 40.8 °F /  4.9 °C 30.21 in /  1022.9 hPa NNE 4.1 mph /  6.6 km/h 5.8 mph /  9.3 km/h 73 % 0.00 in /  0 mm
04:56 49.0 °F /  9.4 °C 40.7 °F /  4.8 °C 30.22 in /  1023.2 hPa NNE 3.9 mph /  6.3 km/h 4.6 mph /  7.4 km/h 73 % 0.00 in /  0 mm
05:01 48.8 °F /  9.3 °C 40.9 °F /  4.9 °C 30.22 in /  1023.2 hPa NNE 4.1 mph /  6.6 km/h 5.8 mph /  9.3 km/h 74 % 0.00 in /  0 mm
05:06 48.7 °F /  9.3 °C 40.1 °F /  4.5 °C 30.22 in /  1023.2 hPa NNE 5.1 mph /  8.2 km/h 6.0 mph /  9.7 km/h 72 % 0.00 in /  0 mm
05:11 48.6 °F /  9.2 °C 40.0 °F /  4.4 °C 30.22 in /  1023.2 hPa North 2.3 mph /  3.7 km/h 5.8 mph /  9.3 km/h 72 % 0.00 in /  0 mm
05:16 48.5 °F /  9.2 °C 39.9 °F /  4.4 °C 30.23 in /  1023.6 hPa North 2.1 mph /  3.4 km/h 3.5 mph /  5.6 km/h 72 % 0.00 in /  0 mm
05:21 48.4 °F /  9.1 °C 39.8 °F /  4.3 °C 30.23 in /  1023.6 hPa NNE 3.3 mph /  5.3 km/h 4.6 mph /  7.4 km/h 72 % 0.00 in /  0 mm
05:26 48.3 °F /  9.1 °C 39.7 °F /  4.3 °C 30.22 in /  1023.2 hPa NNE 1.0 mph /  1.6 km/h 4.6 mph /  7.4 km/h 72 % 0.00 in /  0 mm
05:31 48.2 °F /  9 °C 39.6 °F /  4.2 °C 30.23 in /  1023.6 hPa North 2.9 mph /  4.7 km/h 4.6 mph /  7.4 km/h 72 % 0.00 in /  0 mm
05:36 48.1 °F /  8.9 °C 39.9 °F /  4.4 °C 30.23 in /  1023.6 hPa NNE 3.0 mph /  4.8 km/h 4.6 mph /  7.4 km/h 73 % 0.00 in /  0 mm
05:41 48.0 °F /  8.9 °C 39.8 °F /  4.3 °C 30.24 in /  1023.9 hPa North 3.2 mph /  5.1 km/h 3.5 mph /  5.6 km/h 73 % 0.00 in /  0 mm
05:46 47.9 °F /  8.8 °C 40.0 °F /  4.4 °C 30.24 in /  1023.9 hPa North 1.7 mph /  2.7 km/h 3.5 mph /  5.6 km/h 74 % 0.00 in /  0 mm
05:51 47.8 °F /  8.8 °C 39.9 °F /  4.4 °C 30.24 in /  1023.9 hPa NNE 2.2 mph /  3.5 km/h 3.5 mph /  5.6 km/h 74 % 0.00 in /  0 mm
05:56 47.7 °F /  8.7 °C 39.8 °F /  4.3 °C 30.24 in /  1023.9 hPa NNE 3.9 mph /  6.3 km/h 6.0 mph /  9.7 km/h 74 % 0.00 in /  0 mm
06:01 47.6 °F /  8.7 °C 40.1 °F /  4.5 °C 30.25 in /  1024.3 hPa NNE 1.6 mph /  2.6 km/h 3.5 mph /  5.6 km/h 75 % 0.00 in /  0 mm
06:06 47.5 °F /  8.6 °C 40.0 °F /  4.4 °C 30.25 in /  1024.3 hPa North 2.6 mph /  4.2 km/h 4.0 mph /  6.4 km/h 75 % 0.00 in /  0 mm
06:11 47.4 °F /  8.6 °C 39.9 °F /  4.4 °C 30.26 in /  1024.6 hPa NNW 2.3 mph /  3.7 km/h 5.8 mph /  9.3 km/h 75 % 0.00 in /  0 mm
06:17 47.3 °F /  8.5 °C 39.8 °F /  4.3 °C 30.26 in /  1024.6 hPa NNE 3.0 mph /  4.8 km/h 4.6 mph /  7.4 km/h 75 % 0.00 in /  0 mm
06:22 47.3 °F /  8.5 °C 39.8 °F /  4.3 °C 30.26 in /  1024.6 hPa North 2.6 mph /  4.2 km/h 6.9 mph /  11.1 km/h 75 % 0.00 in /  0 mm
06:24 47.2 °F /  8.4 °C 39.7 °F /  4.3 °C 30.26 in /  1024.6 hPa NNE 2.8 mph /  4.5 km/h 5.8 mph /  9.3 km/h 75 % 0.00 in /  0 mm
06:29 47.3 °F /  8.5 °C 39.8 °F /  4.3 °C 30.26 in /  1024.6 hPa North 2.9 mph /  4.7 km/h 4.6 mph /  7.4 km/h 75 % 0.00 in /  0 mm
06:34 47.3 °F /  8.5 °C 40.1 °F /  4.5 °C 30.27 in /  1024.9 hPa North 2.8 mph /  4.5 km/h 4.0 mph /  6.4 km/h 76 % 0.00 in /  0 mm
06:39 47.4 °F /  8.6 °C 40.6 °F /  4.8 °C 30.27 in /  1024.9 hPa North 2.7 mph /  4.3 km/h 3.5 mph /  5.6 km/h 77 % 0.00 in /  0 mm
06:44 47.5 °F /  8.6 °C 40.3 °F /  4.6 °C 30.27 in /  1024.9 hPa NNE 3.7 mph /  6 km/h 4.6 mph /  7.4 km/h 76 % 0.00 in /  0 mm
06:49 47.6 °F /  8.7 °C 40.1 °F /  4.5 °C 30.27 in /  1024.9 hPa NNE 3.7 mph /  6 km/h 5.8 mph /  9.3 km/h 75 % 0.00 in /  0 mm
06:54 47.9 °F /  8.8 °C 40.0 °F /  4.4 °C 30.27 in /  1024.9 hPa NNE 3.1 mph /  5 km/h 4.6 mph /  7.4 km/h 74 % 0.00 in /  0 mm
06:59 48.2 °F /  9 °C 40.3 °F /  4.6 °C 30.27 in /  1024.9 hPa North 2.5 mph /  4 km/h 3.5 mph /  5.6 km/h 74 % 0.00 in /  0 mm
07:04 48.5 °F /  9.2 °C 40.6 °F /  4.8 °C 30.28 in /  1025.3 hPa NNE 2.5 mph /  4 km/h 5.8 mph /  9.3 km/h 74 % 0.00 in /  0 mm
07:09 48.8 °F /  9.3 °C 40.9 °F /  4.9 °C 30.28 in /  1025.3 hPa NNE 4.2 mph /  6.8 km/h 6.0 mph /  9.7 km/h 74 % 0.00 in /  0 mm
07:14 49.2 °F /  9.6 °C 41.3 °F /  5.2 °C 30.29 in /  1025.6 hPa NNE 3.7 mph /  6 km/h 6.9 mph /  11.1 km/h 74 % 0.00 in /  0 mm
07:19 49.5 °F /  9.7 °C 41.2 °F /  5.1 °C 30.29 in /  1025.6 hPa NNE 3.9 mph /  6.3 km/h 6.0 mph /  9.7 km/h 73 % 0.00 in /  0 mm
07:20 49.6 °F /  9.8 °C 41.3 °F /  5.2 °C 30.29 in /  1025.6 hPa NNE 4.7 mph /  7.6 km/h 6.9 mph /  11.1 km/h 73 % 0.00 in /  0 mm
07:25 50.0 °F /  10 °C 41.3 °F /  5.2 °C 30.29 in /  1025.6 hPa NNE 3.8 mph /  6.1 km/h 5.0 mph /  8 km/h 72 % 0.00 in /  0 mm
07:30 50.4 °F /  10.2 °C 41.3 °F /  5.2 °C 30.29 in /  1025.6 hPa North 2.3 mph /  3.7 km/h 5.0 mph /  8 km/h 71 % 0.00 in /  0 mm
07:35 50.6 °F /  10.3 °C 41.2 °F /  5.1 °C 30.29 in /  1025.6 hPa NE 3.0 mph /  4.8 km/h 5.0 mph /  8 km/h 70 % 0.00 in /  0 mm
07:40 50.9 °F /  10.5 °C 41.8 °F /  5.4 °C 30.29 in /  1025.6 hPa North 3.4 mph /  5.5 km/h 7.0 mph /  11.3 km/h 71 % 0.00 in /  0 mm
07:46 51.1 °F /  10.6 °C 42.0 °F /  5.6 °C 30.29 in /  1025.6 hPa NNE 3.5 mph /  5.6 km/h 5.8 mph /  9.3 km/h 71 % 0.00 in /  0 mm
07:51 51.3 °F /  10.7 °C 42.2 °F /  5.7 °C 30.29 in /  1025.6 hPa NE 1.9 mph /  3.1 km/h 3.5 mph /  5.6 km/h 71 % 0.00 in /  0 mm
07:56 51.5 °F /  10.8 °C 42.4 °F /  5.8 °C 30.30 in /  1026 hPa NNE 2.8 mph /  4.5 km/h 4.6 mph /  7.4 km/h 71 % 0.00 in /  0 mm
08:01 51.7 °F /  10.9 °C 42.6 °F /  5.9 °C 30.29 in /  1025.6 hPa North 2.4 mph /  3.9 km/h 4.0 mph /  6.4 km/h 71 % 0.00 in /  0 mm
08:06 51.9 °F /  11.1 °C 42.0 °F /  5.6 °C 30.30 in /  1026 hPa North 3.4 mph /  5.5 km/h 5.8 mph /  9.3 km/h 69 % 0.00 in /  0 mm
08:11 52.0 °F /  11.1 °C 42.1 °F /  5.6 °C 30.30 in /  1026 hPa NNE 3.7 mph /  6 km/h 5.0 mph /  8 km/h 69 % 0.00 in /  0 mm
08:16 52.0 °F /  11.1 °C 42.1 °F /  5.6 °C 30.30 in /  1026 hPa North 4.7 mph /  7.6 km/h 5.8 mph /  9.3 km/h 69 % 0.00 in /  0 mm
08:21 52.1 °F /  11.2 °C 42.2 °F /  5.7 °C 30.31 in /  1026.3 hPa North 3.6 mph /  5.8 km/h 7.0 mph /  11.3 km/h 69 % 0.00 in /  0 mm
08:26 52.1 °F /  11.2 °C 42.2 °F /  5.7 °C 30.31 in /  1026.3 hPa North 6.0 mph /  9.7 km/h 8.1 mph /  13 km/h 69 % 0.00 in /  0 mm
08:31 52.2 °F /  11.2 °C 42.3 °F /  5.7 °C 30.31 in /  1026.3 hPa NNE 5.8 mph /  9.3 km/h 9.2 mph /  14.8 km/h 69 % 0.00 in /  0 mm
08:36 52.3 °F /  11.3 °C 42.4 °F /  5.8 °C 30.31 in /  1026.3 hPa NE 4.1 mph /  6.6 km/h 5.8 mph /  9.3 km/h 69 % 0.00 in /  0 mm
08:41 52.5 °F /  11.4 °C 42.2 °F /  5.7 °C 30.31 in /  1026.3 hPa NE 5.9 mph /  9.5 km/h 9.2 mph /  14.8 km/h 68 % 0.00 in /  0 mm
08:46 52.8 °F /  11.6 °C 42.9 °F /  6.1 °C 30.31 in /  1026.3 hPa NNE 5.7 mph /  9.2 km/h 10.4 mph /  16.7 km/h 69 % 0.00 in /  0 mm
08:51 53.3 °F /  11.8 °C 43.0 °F /  6.1 °C 30.31 in /  1026.3 hPa North 4.2 mph /  6.8 km/h 6.9 mph /  11.1 km/h 68 % 0.00 in /  0 mm
08:57 53.7 °F /  12.1 °C 43.4 °F /  6.3 °C 30.31 in /  1026.3 hPa NNE 5.1 mph /  8.2 km/h 8.1 mph /  13 km/h 68 % 0.00 in /  0 mm
09:02 53.9 °F /  12.2 °C 42.8 °F /  6 °C 30.31 in /  1026.3 hPa North 6.0 mph /  9.7 km/h 9.2 mph /  14.8 km/h 66 % 0.00 in /  0 mm
09:07 54.1 °F /  12.3 °C 43.0 °F /  6.1 °C 30.31 in /  1026.3 hPa NNE 4.4 mph /  7.1 km/h 8.0 mph /  12.9 km/h 66 % 0.00 in /  0 mm
09:12 54.5 °F /  12.5 °C 43.0 °F /  6.1 °C 30.32 in /  1026.6 hPa NNE 5.0 mph /  8 km/h 6.9 mph /  11.1 km/h 65 % 0.00 in /  0 mm
09:17 54.8 °F /  12.7 °C 42.4 °F /  5.8 °C 30.32 in /  1026.6 hPa NE 4.4 mph /  7.1 km/h 5.8 mph /  9.3 km/h 63 % 0.00 in /  0 mm
09:22 55.4 °F /  13 °C 43.0 °F /  6.1 °C 30.32 in /  1026.6 hPa NNE 3.3 mph /  5.3 km/h 4.6 mph /  7.4 km/h 63 % 0.00 in /  0 mm
09:27 55.7 °F /  13.2 °C 42.5 °F /  5.8 °C 30.32 in /  1026.6 hPa NE 3.0 mph /  4.8 km/h 4.0 mph /  6.4 km/h 61 % 0.00 in /  0 mm
09:32 56.1 °F /  13.4 °C 42.4 °F /  5.8 °C 30.33 in /  1027 hPa NNW 3.0 mph /  4.8 km/h 4.6 mph /  7.4 km/h 60 % 0.00 in /  0 mm
09:37 56.6 °F /  13.7 °C 43.7 °F /  6.5 °C 30.33 in /  1027 hPa NNE 3.4 mph /  5.5 km/h 4.6 mph /  7.4 km/h 62 % 0.00 in /  0 mm
09:42 57.1 °F /  13.9 °C 42.9 °F /  6.1 °C 30.33 in /  1027 hPa NNE 2.1 mph /  3.4 km/h 4.0 mph /  6.4 km/h 59 % 0.00 in /  0 mm
09:47 57.4 °F /  14.1 °C 42.3 °F /  5.7 °C 30.33 in /  1027 hPa NNE 5.0 mph /  8 km/h 7.0 mph /  11.3 km/h 57 % 0.00 in /  0 mm
09:52 57.6 °F /  14.2 °C 42.0 °F /  5.6 °C 30.34 in /  1027.3 hPa NNE 3.0 mph /  4.8 km/h 6.0 mph /  9.7 km/h 56 % 0.00 in /  0 mm
09:57 57.9 °F /  14.4 °C 43.7 °F /  6.5 °C 30.34 in /  1027.3 hPa ENE 2.6 mph /  4.2 km/h 4.6 mph /  7.4 km/h 59 % 0.00 in /  0 mm
10:02 57.9 °F /  14.4 °C 41.8 °F /  5.4 °C 30.34 in /  1027.3 hPa ENE 3.2 mph /  5.1 km/h 6.9 mph /  11.1 km/h 55 % 0.00 in /  0 mm
10:07 58.0 °F /  14.4 °C 42.8 °F /  6 °C 30.34 in /  1027.3 hPa ENE 2.0 mph /  3.2 km/h 6.0 mph /  9.7 km/h 57 % 0.00 in /  0 mm
10:12 57.8 °F /  14.3 °C 40.8 °F /  4.9 °C 30.34 in /  1027.3 hPa ENE 2.0 mph /  3.2 km/h 8.0 mph /  12.9 km/h 53 % 0.00 in /  0 mm
10:17 57.8 °F /  14.3 °C 41.3 °F /  5.2 °C 30.34 in /  1027.3 hPa ENE 5.0 mph /  8 km/h 6.0 mph /  9.7 km/h 54 % 0.00 in /  0 mm
10:22 57.7 °F /  14.3 °C 40.7 °F /  4.8 °C 30.34 in /  1027.3 hPa ENE 6.0 mph /  9.7 km/h 10.0 mph /  16.1 km/h 53 % 0.00 in /  0 mm
10:27 57.6 °F /  14.2 °C 41.5 °F /  5.3 °C 30.34 in /  1027.3 hPa ENE 5.0 mph /  8 km/h 8.0 mph /  12.9 km/h 55 % 0.00 in /  0 mm
10:32 57.9 °F /  14.4 °C 40.9 °F /  4.9 °C 30.35 in /  1027.7 hPa East 3.7 mph /  6 km/h 6.9 mph /  11.1 km/h 53 % 0.00 in /  0 mm
10:37 57.9 °F /  14.4 °C 40.9 °F /  4.9 °C 30.35 in /  1027.7 hPa ENE 3.6 mph /  5.8 km/h 5.8 mph /  9.3 km/h 53 % 0.00 in /  0 mm
10:42 58.3 °F /  14.6 °C 41.7 °F /  5.4 °C 30.35 in /  1027.7 hPa East 3.1 mph /  5 km/h 6.0 mph /  9.7 km/h 54 % 0.00 in /  0 mm
10:47 58.6 °F /  14.8 °C 41.5 °F /  5.3 °C 30.35 in /  1027.7 hPa East 2.4 mph /  3.9 km/h 7.0 mph /  11.3 km/h 53 % 0.00 in /  0 mm
10:52 58.8 °F /  14.9 °C 40.7 °F /  4.8 °C 30.35 in /  1027.7 hPa ENE 5.0 mph /  8 km/h 8.0 mph /  12.9 km/h 51 % 0.00 in /  0 mm
10:57 59.0 °F /  15 °C 40.9 °F /  4.9 °C 30.35 in /  1027.7 hPa East 2.6 mph /  4.2 km/h 3.5 mph /  5.6 km/h 51 % 0.00 in /  0 mm
11:02 59.5 °F /  15.3 °C 40.8 °F /  4.9 °C 30.35 in /  1027.7 hPa ENE 2.9 mph /  4.7 km/h 4.6 mph /  7.4 km/h 50 % 0.00 in /  0 mm
11:07 59.6 °F /  15.3 °C 39.9 °F /  4.4 °C 30.35 in /  1027.7 hPa ENE 1.4 mph /  2.3 km/h 6.9 mph /  11.1 km/h 48 % 0.00 in /  0 mm
11:12 59.9 °F /  15.5 °C 40.7 °F /  4.8 °C 30.35 in /  1027.7 hPa ENE 2.9 mph /  4.7 km/h 6.9 mph /  11.1 km/h 49 % 0.00 in /  0 mm
11:17 59.5 °F /  15.3 °C 39.2 °F /  4 °C 30.35 in /  1027.7 hPa East 2.2 mph /  3.5 km/h 5.8 mph /  9.3 km/h 47 % 0.00 in /  0 mm
11:22 59.5 °F /  15.3 °C 40.3 °F /  4.6 °C 30.35 in /  1027.7 hPa ENE 2.0 mph /  3.2 km/h 5.0 mph /  8 km/h 49 % 0.00 in /  0 mm
11:27 59.8 °F /  15.4 °C 39.5 °F /  4.2 °C 30.35 in /  1027.7 hPa East 1.9 mph /  3.1 km/h 6.9 mph /  11.1 km/h 47 % 0.00 in /  0 mm
11:32 60.0 °F /  15.6 °C 40.2 °F /  4.6 °C 30.35 in /  1027.7 hPa ENE 2.5 mph /  4 km/h 6.9 mph /  11.1 km/h 48 % 0.00 in /  0 mm
11:37 60.3 °F /  15.7 °C 41.0 °F /  5 °C 30.35 in /  1027.7 hPa ENE 1.1 mph /  1.8 km/h 4.6 mph /  7.4 km/h 49 % 0.00 in /  0 mm
11:42 60.7 °F /  15.9 °C 40.3 °F /  4.6 °C 30.35 in /  1027.7 hPa ESE 2.0 mph /  3.2 km/h 3.5 mph /  5.6 km/h 47 % 0.00 in /  0 mm
11:47 61.2 °F /  16.2 °C 39.7 °F /  4.3 °C 30.35 in /  1027.7 hPa East 1.6 mph /  2.6 km/h 3.5 mph /  5.6 km/h 45 % 0.00 in /  0 mm
11:52 61.8 °F /  16.6 °C 40.8 °F /  4.9 °C 30.35 in /  1027.7 hPa ENE 2.5 mph /  4 km/h 5.0 mph /  8 km/h 46 % 0.00 in /  0 mm
11:58 62.4 °F /  16.9 °C 41.9 °F /  5.5 °C 30.35 in /  1027.7 hPa ENE 3.4 mph /  5.5 km/h 5.8 mph /  9.3 km/h 47 % 0.00 in /  0 mm
12:03 62.8 °F /  17.1 °C 40.0 °F /  4.4 °C 30.35 in /  1027.7 hPa East 0.4 mph /  0.6 km/h 3.0 mph /  4.8 km/h 43 % 0.00 in /  0 mm
12:08 63.0 °F /  17.2 °C 41.9 °F /  5.5 °C 30.35 in /  1027.7 hPa NNE 2.0 mph /  3.2 km/h 4.6 mph /  7.4 km/h 46 % 0.00 in /  0 mm
12:13 63.7 °F /  17.6 °C 42.5 °F /  5.8 °C 30.35 in /  1027.7 hPa East 2.8 mph /  4.5 km/h 6.0 mph /  9.7 km/h 46 % 0.00 in /  0 mm
12:14 63.8 °F /  17.7 °C 41.5 °F /  5.3 °C 30.35 in /  1027.7 hPa East 2.2 mph /  3.5 km/h 5.8 mph /  9.3 km/h 44 % 0.00 in /  0 mm
12:19 63.9 °F /  17.7 °C 41.0 °F /  5 °C 30.35 in /  1027.7 hPa NNW 1.3 mph /  2.1 km/h 4.0 mph /  6.4 km/h 43 % 0.00 in /  0 mm
12:24 63.8 °F /  17.7 °C 40.9 °F /  4.9 °C 30.34 in /  1027.3 hPa NE 2.9 mph /  4.7 km/h 6.0 mph /  9.7 km/h 43 % 0.00 in /  0 mm
12:29 63.5 °F /  17.5 °C 40.6 °F /  4.8 °C 30.34 in /  1027.3 hPa ENE 1.3 mph /  2.1 km/h 8.1 mph /  13 km/h 43 % 0.00 in /  0 mm
12:34 63.1 °F /  17.3 °C 40.2 °F /  4.6 °C 30.34 in /  1027.3 hPa East 0.1 mph /  0.2 km/h 2.3 mph /  3.7 km/h 43 % 0.00 in /  0 mm
12:39 63.3 °F /  17.4 °C 41.0 °F /  5 °C 30.34 in /  1027.3 hPa NE 1.6 mph /  2.6 km/h 4.6 mph /  7.4 km/h 44 % 0.00 in /  0 mm
12:44 63.4 °F /  17.4 °C 39.9 °F /  4.4 °C 30.34 in /  1027.3 hPa NNE 3.1 mph /  5 km/h 4.6 mph /  7.4 km/h 42 % 0.00 in /  0 mm
12:49 63.3 °F /  17.4 °C 41.0 °F /  5 °C 30.34 in /  1027.3 hPa ENE 3.1 mph /  5 km/h 4.6 mph /  7.4 km/h 44 % 0.00 in /  0 mm
12:55 63.6 °F /  17.6 °C 41.3 °F /  5.2 °C 30.34 in /  1027.3 hPa NNE 0.2 mph /  0.3 km/h 3.5 mph /  5.6 km/h 44 % 0.00 in /  0 mm
13:00 64.2 °F /  17.9 °C 41.2 °F /  5.1 °C 30.34 in /  1027.3 hPa NNE 2.1 mph /  3.4 km/h 5.0 mph /  8 km/h 43 % 0.00 in /  0 mm
13:05 65.0 °F /  18.3 °C 41.3 °F /  5.2 °C 30.34 in /  1027.3 hPa NNE 3.5 mph /  5.6 km/h 3.5 mph /  5.6 km/h 42 % 0.00 in /  0 mm
13:10 65.0 °F /  18.3 °C 39.4 °F /  4.1 °C 30.34 in /  1027.3 hPa ENE 2.9 mph /  4.7 km/h 4.6 mph /  7.4 km/h 39 % 0.00 in /  0 mm
13:15 65.3 °F /  18.5 °C 41.6 °F /  5.3 °C 30.34 in /  1027.3 hPa North 2.5 mph /  4 km/h 4.6 mph /  7.4 km/h 42 % 0.00 in /  0 mm
13:20 65.9 °F /  18.8 °C 40.9 °F /  4.9 °C 30.34 in /  1027.3 hPa NNE 2.6 mph /  4.2 km/h 4.6 mph /  7.4 km/h 40 % 0.00 in /  0 mm
13:25 66.3 °F /  19.1 °C 40.6 °F /  4.8 °C 30.34 in /  1027.3 hPa North 3.0 mph /  4.8 km/h 4.6 mph /  7.4 km/h 39 % 0.00 in /  0 mm
13:30 66.5 °F /  19.2 °C 40.8 °F /  4.9 °C 30.34 in /  1027.3 hPa North 4.2 mph /  6.8 km/h 5.8 mph /  9.3 km/h 39 % 0.00 in /  0 mm
13:35 66.6 °F /  19.2 °C 40.2 °F /  4.6 °C 30.34 in /  1027.3 hPa NNE 3.4 mph /  5.5 km/h 4.6 mph /  7.4 km/h 38 % 0.00 in /  0 mm
13:40 66.8 °F /  19.3 °C 40.4 °F /  4.7 °C 30.34 in /  1027.3 hPa North 4.4 mph /  7.1 km/h 5.0 mph /  8 km/h 38 % 0.00 in /  0 mm
13:45 67.0 °F /  19.4 °C 39.9 °F /  4.4 °C 30.34 in /  1027.3 hPa East 3.5 mph /  5.6 km/h 8.0 mph /  12.9 km/h 37 % 0.00 in /  0 mm
13:50 66.2 °F /  19 °C 39.8 °F /  4.3 °C 30.34 in /  1027.3 hPa ENE 2.6 mph /  4.2 km/h 5.8 mph /  9.3 km/h 38 % 0.00 in /  0 mm
13:55 65.1 °F /  18.4 °C 39.5 °F /  4.2 °C 30.34 in /  1027.3 hPa ENE 4.0 mph /  6.4 km/h 6.9 mph /  11.1 km/h 39 % 0.00 in /  0 mm
14:00 64.1 °F /  17.8 °C 38.0 °F /  3.3 °C 30.34 in /  1027.3 hPa ENE 3.8 mph /  6.1 km/h 5.0 mph /  8 km/h 38 % 0.00 in /  0 mm
14:05 64.1 °F /  17.8 °C 40.5 °F /  4.7 °C 30.34 in /  1027.3 hPa ENE 2.7 mph /  4.3 km/h 4.0 mph /  6.4 km/h 42 % 0.00 in /  0 mm
14:10 64.0 °F /  17.8 °C 39.8 °F /  4.3 °C 30.34 in /  1027.3 hPa ENE 3.2 mph /  5.1 km/h 4.6 mph /  7.4 km/h 41 % 0.00 in /  0 mm
14:15 63.8 °F /  17.7 °C 39.6 °F /  4.2 °C 30.34 in /  1027.3 hPa ENE 3.7 mph /  6 km/h 4.6 mph /  7.4 km/h 41 % 0.00 in /  0 mm
14:20 63.3 °F /  17.4 °C 38.6 °F /  3.7 °C 30.34 in /  1027.3 hPa ENE 3.0 mph /  4.8 km/h 3.5 mph /  5.6 km/h 40 % 0.00 in /  0 mm
14:26 63.4 °F /  17.4 °C 39.9 °F /  4.4 °C 30.34 in /  1027.3 hPa NE 2.9 mph /  4.7 km/h 3.5 mph /  5.6 km/h 42 % 0.00 in /  0 mm
14:31 63.9 °F /  17.7 °C 41.0 °F /  5 °C 30.34 in /  1027.3 hPa NE 2.7 mph /  4.3 km/h 3.5 mph /  5.6 km/h 43 % 0.00 in /  0 mm
14:36 64.3 °F /  17.9 °C 41.3 °F /  5.2 °C 30.34 in /  1027.3 hPa SSE 3.9 mph /  6.3 km/h 10.4 mph /  16.7 km/h 43 % 0.00 in /  0 mm
14:41 64.5 °F /  18.1 °C 43.8 °F /  6.6 °C 30.34 in /  1027.3 hPa ESE 2.8 mph /  4.5 km/h 4.6 mph /  7.4 km/h 47 % 0.00 in /  0 mm
14:46 64.3 °F /  17.9 °C 43.6 °F /  6.4 °C 30.34 in /  1027.3 hPa SE 7.3 mph /  11.7 km/h 11.5 mph /  18.5 km/h 47 % 0.00 in /  0 mm
14:51 63.5 °F /  17.5 °C 41.8 °F /  5.4 °C 30.34 in /  1027.3 hPa South 4.9 mph /  7.9 km/h 9.2 mph /  14.8 km/h 45 % 0.00 in /  0 mm
14:56 62.9 °F /  17.2 °C 41.8 °F /  5.4 °C 30.34 in /  1027.3 hPa SE 5.1 mph /  8.2 km/h 11.5 mph /  18.5 km/h 46 % 0.00 in /  0 mm
15:01 62.2 °F /  16.8 °C 41.2 °F /  5.1 °C 30.34 in /  1027.3 hPa SE 8.4 mph /  13.5 km/h 13.8 mph /  22.2 km/h 46 % 0.00 in /  0 mm
15:06 61.3 °F /  16.3 °C 41.4 °F /  5.2 °C 30.34 in /  1027.3 hPa SE 7.1 mph /  11.4 km/h 11.5 mph /  18.5 km/h 48 % 0.00 in /  0 mm
15:12 60.7 °F /  15.9 °C 41.9 °F /  5.5 °C 30.34 in /  1027.3 hPa South 5.3 mph /  8.5 km/h 11.5 mph /  18.5 km/h 50 % 0.00 in /  0 mm
15:17 60.5 °F /  15.8 °C 41.2 °F /  5.1 °C 30.35 in /  1027.7 hPa South 8.4 mph /  13.5 km/h 9.0 mph /  14.5 km/h 49 % 0.00 in /  0 mm
15:22 59.9 °F /  15.5 °C 41.2 °F /  5.1 °C 30.34 in /  1027.3 hPa SE 4.6 mph /  7.4 km/h 13.8 mph /  22.2 km/h 50 % 0.00 in /  0 mm
15:27 60.0 °F /  15.6 °C 41.8 °F /  5.4 °C 30.34 in /  1027.3 hPa SW 4.5 mph /  7.2 km/h 6.9 mph /  11.1 km/h 51 % 0.00 in /  0 mm
15:32 60.3 °F /  15.7 °C 42.1 °F /  5.6 °C 30.35 in /  1027.7 hPa SSE 4.8 mph /  7.7 km/h 8.1 mph /  13 km/h 51 % 0.00 in /  0 mm
15:37 60.4 °F /  15.8 °C 42.2 °F /  5.7 °C 30.34 in /  1027.3 hPa SSW 3.5 mph /  5.6 km/h 6.9 mph /  11.1 km/h 51 % 0.00 in /  0 mm
15:42 60.3 °F /  15.7 °C 41.0 °F /  5 °C 30.34 in /  1027.3 hPa SSW 1.9 mph /  3.1 km/h 10.4 mph /  16.7 km/h 49 % 0.00 in /  0 mm
15:47 60.5 °F /  15.8 °C 42.3 °F /  5.7 °C 30.35 in /  1027.7 hPa SSE 4.4 mph /  7.1 km/h 10.4 mph /  16.7 km/h 51 % 0.00 in /  0 mm
15:53 60.5 °F /  15.8 °C 41.8 °F /  5.4 °C 30.34 in /  1027.3 hPa South 5.5 mph /  8.9 km/h 9.2 mph /  14.8 km/h 50 % 0.00 in /  0 mm
15:58 59.8 °F /  15.4 °C 41.1 °F /  5.1 °C 30.35 in /  1027.7 hPa South 4.4 mph /  7.1 km/h 18.4 mph /  29.6 km/h 50 % 0.00 in /  0 mm
16:03 59.5 °F /  15.3 °C 41.9 °F /  5.5 °C 30.35 in /  1027.7 hPa South 4.5 mph /  7.2 km/h 8.0 mph /  12.9 km/h 52 % 0.00 in /  0 mm
16:08 59.2 °F /  15.1 °C 42.1 °F /  5.6 °C 30.35 in /  1027.7 hPa South 5.2 mph /  8.4 km/h 8.1 mph /  13 km/h 53 % 0.00 in /  0 mm
16:13 59.4 °F /  15.2 °C 42.3 °F /  5.7 °C 30.36 in /  1028 hPa SSW 5.2 mph /  8.4 km/h 10.0 mph /  16.1 km/h 53 % 0.00 in /  0 mm
16:18 59.1 °F /  15.1 °C 42.0 °F /  5.6 °C 30.35 in /  1027.7 hPa ESE 5.5 mph /  8.9 km/h 11.5 mph /  18.5 km/h 53 % 0.00 in /  0 mm
16:23 59.1 °F /  15.1 °C 42.0 °F /  5.6 °C 30.35 in /  1027.7 hPa SSE 4.2 mph /  6.8 km/h 9.2 mph /  14.8 km/h 53 % 0.00 in /  0 mm
16:28 59.1 °F /  15.1 °C 42.0 °F /  5.6 °C 30.35 in /  1027.7 hPa South 5.3 mph /  8.5 km/h 10.4 mph /  16.7 km/h 53 % 0.00 in /  0 mm
16:33 58.8 °F /  14.9 °C 41.2 °F /  5.1 °C 30.36 in /  1028 hPa SSW 7.3 mph /  11.7 km/h 11.5 mph /  18.5 km/h 52 % 0.00 in /  0 mm
16:38 58.9 °F /  14.9 °C 41.3 °F /  5.2 °C 30.35 in /  1027.7 hPa SE 5.5 mph /  8.9 km/h 11.5 mph /  18.5 km/h 52 % 0.00 in /  0 mm
16:43 58.6 °F /  14.8 °C 41.0 °F /  5 °C 30.35 in /  1027.7 hPa SSE 8.2 mph /  13.2 km/h 12.0 mph /  19.3 km/h 52 % 0.00 in /  0 mm
16:48 58.2 °F /  14.6 °C 41.1 °F /  5.1 °C 30.35 in /  1027.7 hPa SSE 4.9 mph /  7.9 km/h 11.5 mph /  18.5 km/h 53 % 0.00 in /  0 mm
16:54 58.0 °F /  14.4 °C 41.4 °F /  5.2 °C 30.35 in /  1027.7 hPa SE 4.0 mph /  6.4 km/h 11.5 mph /  18.5 km/h 54 % 0.00 in /  0 mm
16:59 57.8 °F /  14.3 °C 41.3 °F /  5.2 °C 30.36 in /  1028 hPa SSE 5.9 mph /  9.5 km/h 8.0 mph /  12.9 km/h 54 % 0.00 in /  0 mm
17:04 57.8 °F /  14.3 °C 40.8 °F /  4.9 °C 30.36 in /  1028 hPa SSE 3.9 mph /  6.3 km/h 9.2 mph /  14.8 km/h 53 % 0.00 in /  0 mm
17:09 57.8 °F /  14.3 °C 41.3 °F /  5.2 °C 30.36 in /  1028 hPa SSE 5.8 mph /  9.3 km/h 10.4 mph /  16.7 km/h 54 % 0.00 in /  0 mm
17:14 57.8 °F /  14.3 °C 40.8 °F /  4.9 °C 30.36 in /  1028 hPa South 4.9 mph /  7.9 km/h 10.0 mph /  16.1 km/h 53 % 0.00 in /  0 mm
17:19 57.6 °F /  14.2 °C 40.1 °F /  4.5 °C 30.37 in /  1028.3 hPa SSE 6.2 mph /  10 km/h 9.0 mph /  14.5 km/h 52 % 0.00 in /  0 mm
17:24 57.4 °F /  14.1 °C 40.4 °F /  4.7 °C 30.37 in /  1028.3 hPa SE 5.6 mph /  9 km/h 11.0 mph /  17.7 km/h 53 % 0.00 in /  0 mm
17:29 57.2 °F /  14 °C 39.7 °F /  4.3 °C 30.37 in /  1028.3 hPa SE 8.1 mph /  13 km/h 10.4 mph /  16.7 km/h 52 % 0.00 in /  0 mm
17:34 57.0 °F /  13.9 °C 40.0 °F /  4.4 °C 30.37 in /  1028.3 hPa SE 3.2 mph /  5.1 km/h 9.2 mph /  14.8 km/h 53 % 0.00 in /  0 mm
17:39 56.9 °F /  13.8 °C 40.4 °F /  4.7 °C 30.37 in /  1028.3 hPa SE 1.9 mph /  3.1 km/h 9.2 mph /  14.8 km/h 54 % 0.00 in /  0 mm
17:44 56.8 °F /  13.8 °C 39.8 °F /  4.3 °C 30.36 in /  1028 hPa South 4.2 mph /  6.8 km/h 11.5 mph /  18.5 km/h 53 % 0.00 in /  0 mm
17:49 56.7 °F /  13.7 °C 39.7 °F /  4.3 °C 30.37 in /  1028.3 hPa SSE 3.6 mph /  5.8 km/h 9.2 mph /  14.8 km/h 53 % 0.00 in /  0 mm
17:54 56.5 °F /  13.6 °C 39.1 °F /  3.9 °C 30.37 in /  1028.3 hPa SSE 8.2 mph /  13.2 km/h 12.7 mph /  20.4 km/h 52 % 0.00 in /  0 mm
17:59 56.1 °F /  13.4 °C 39.2 °F /  4 °C 30.37 in /  1028.3 hPa South 4.8 mph /  7.7 km/h 9.2 mph /  14.8 km/h 53 % 0.00 in /  0 mm
18:04 55.9 °F /  13.3 °C 39.0 °F /  3.9 °C 30.37 in /  1028.3 hPa South 4.8 mph /  7.7 km/h 11.5 mph /  18.5 km/h 53 % 0.00 in /  0 mm
18:09 55.9 °F /  13.3 °C 38.5 °F /  3.6 °C 30.37 in /  1028.3 hPa South 6.4 mph /  10.3 km/h 9.2 mph /  14.8 km/h 52 % 0.00 in /  0 mm
18:15 55.5 °F /  13.1 °C 38.1 °F /  3.4 °C 30.38 in /  1028.7 hPa South 3.5 mph /  5.6 km/h 9.2 mph /  14.8 km/h 52 % 0.00 in /  0 mm
18:20 55.2 °F /  12.9 °C 38.4 °F /  3.6 °C 30.38 in /  1028.7 hPa SE 7.1 mph /  11.4 km/h 11.5 mph /  18.5 km/h 53 % 0.00 in /  0 mm
18:25 54.9 °F /  12.7 °C 38.1 °F /  3.4 °C 30.37 in /  1028.3 hPa SSE 7.0 mph /  11.3 km/h 13.8 mph /  22.2 km/h 53 % 0.00 in /  0 mm
18:30 54.6 °F /  12.6 °C 38.3 °F /  3.5 °C 30.38 in /  1028.7 hPa SSE 3.0 mph /  4.8 km/h 6.9 mph /  11.1 km/h 54 % 0.00 in /  0 mm
18:35 54.4 °F /  12.4 °C 38.6 °F /  3.7 °C 30.38 in /  1028.7 hPa SSW 5.8 mph /  9.3 km/h 13.8 mph /  22.2 km/h 55 % 0.00 in /  0 mm
18:40 54.1 °F /  12.3 °C 38.7 °F /  3.7 °C 30.38 in /  1028.7 hPa SSE 3.6 mph /  5.8 km/h 9.2 mph /  14.8 km/h 56 % 0.00 in /  0 mm
18:45 53.9 °F /  12.2 °C 39.0 °F /  3.9 °C 30.38 in /  1028.7 hPa SE 4.8 mph /  7.7 km/h 8.0 mph /  12.9 km/h 57 % 0.00 in /  0 mm
18:50 53.6 °F /  12 °C 38.7 °F /  3.7 °C 30.39 in /  1029 hPa SE 4.7 mph /  7.6 km/h 11.5 mph /  18.5 km/h 57 % 0.00 in /  0 mm
18:55 53.2 °F /  11.8 °C 39.2 °F /  4 °C 30.39 in /  1029 hPa SE 3.3 mph /  5.3 km/h 9.2 mph /  14.8 km/h 59 % 0.00 in /  0 mm
19:00 53.0 °F /  11.7 °C 39.0 °F /  3.9 °C 30.39 in /  1029 hPa SSE 6.4 mph /  10.3 km/h 10.0 mph /  16.1 km/h 59 % 0.00 in /  0 mm
19:05 52.6 °F /  11.4 °C 38.2 °F /  3.4 °C 30.40 in /  1029.3 hPa SSE 6.5 mph /  10.5 km/h 11.5 mph /  18.5 km/h 58 % 0.00 in /  0 mm
19:10 52.1 °F /  11.2 °C 37.3 °F /  2.9 °C 30.40 in /  1029.3 hPa SSE 9.7 mph /  15.6 km/h 15.0 mph /  24.1 km/h 57 % 0.00 in /  0 mm
19:15 51.6 °F /  10.9 °C 37.3 °F /  2.9 °C 30.41 in /  1029.7 hPa SSE 5.5 mph /  8.9 km/h 9.2 mph /  14.8 km/h 58 % 0.00 in /  0 mm
19:20 51.4 °F /  10.8 °C 37.5 °F /  3.1 °C 30.41 in /  1029.7 hPa SE 7.5 mph /  12.1 km/h 11.5 mph /  18.5 km/h 59 % 0.00 in /  0 mm
19:25 51.0 °F /  10.6 °C 37.2 °F /  2.9 °C 30.41 in /  1029.7 hPa SSE 4.0 mph /  6.4 km/h 11.5 mph /  18.5 km/h 59 % 0.00 in /  0 mm
19:30 50.8 °F /  10.4 °C 37.0 °F /  2.8 °C 30.41 in /  1029.7 hPa SE 6.8 mph /  10.9 km/h 10.4 mph /  16.7 km/h 59 % 0.00 in /  0 mm
19:35 50.6 °F /  10.3 °C 37.2 °F /  2.9 °C 30.41 in /  1029.7 hPa SSE 5.3 mph /  8.5 km/h 8.1 mph /  13 km/h 60 % 0.00 in /  0 mm
19:40 50.5 °F /  10.3 °C 37.1 °F /  2.8 °C 30.42 in /  1030 hPa SSE 4.9 mph /  7.9 km/h 11.5 mph /  18.5 km/h 60 % 0.00 in /  0 mm
19:45 50.3 °F /  10.2 °C 37.4 °F /  3 °C 30.42 in /  1030 hPa SSE 7.6 mph /  12.2 km/h 12.0 mph /  19.3 km/h 61 % 0.00 in /  0 mm
19:50 50.1 °F /  10.1 °C 37.2 °F /  2.9 °C 30.42 in /  1030 hPa SE 3.1 mph /  5 km/h 4.6 mph /  7.4 km/h 61 % 0.00 in /  0 mm
19:56 50.0 °F /  10 °C 37.5 °F /  3.1 °C 30.43 in /  1030.4 hPa SE 4.2 mph /  6.8 km/h 8.0 mph /  12.9 km/h 62 % 0.00 in /  0 mm
20:01 49.9 °F /  9.9 °C 37.8 °F /  3.2 °C 30.43 in /  1030.4 hPa South 3.2 mph /  5.1 km/h 6.9 mph /  11.1 km/h 63 % 0.00 in /  0 mm
20:06 49.7 °F /  9.8 °C 38.0 °F /  3.3 °C 30.43 in /  1030.4 hPa SSE 5.7 mph /  9.2 km/h 10.4 mph /  16.7 km/h 64 % 0.00 in /  0 mm
20:11 49.5 °F /  9.7 °C 38.6 °F /  3.7 °C 30.44 in /  1030.7 hPa SE 6.4 mph /  10.3 km/h 10.4 mph /  16.7 km/h 66 % 0.00 in /  0 mm
20:16 49.3 °F /  9.6 °C 38.8 °F /  3.8 °C 30.44 in /  1030.7 hPa SE 4.1 mph /  6.6 km/h 8.1 mph /  13 km/h 67 % 0.00 in /  0 mm
20:21 49.2 °F /  9.6 °C 39.1 °F /  3.9 °C 30.44 in /  1030.7 hPa ESE 5.2 mph /  8.4 km/h 9.2 mph /  14.8 km/h 68 % 0.00 in /  0 mm
20:26 49.0 °F /  9.4 °C 39.6 °F /  4.2 °C 30.44 in /  1030.7 hPa ESE 3.8 mph /  6.1 km/h 11.5 mph /  18.5 km/h 70 % 0.00 in /  0 mm
20:31 48.9 °F /  9.4 °C 39.9 °F /  4.4 °C 30.45 in /  1031 hPa SSE 5.7 mph /  9.2 km/h 6.9 mph /  11.1 km/h 71 % 0.00 in /  0 mm
20:36 48.7 °F /  9.3 °C 39.7 °F /  4.3 °C 30.45 in /  1031 hPa SE 3.1 mph /  5 km/h 4.6 mph /  7.4 km/h 71 % 0.00 in /  0 mm
20:41 48.7 °F /  9.3 °C 40.1 °F /  4.5 °C 30.45 in /  1031 hPa SE 2.4 mph /  3.9 km/h 6.9 mph /  11.1 km/h 72 % 0.00 in /  0 mm
20:46 48.5 °F /  9.2 °C 40.6 °F /  4.8 °C 30.45 in /  1031 hPa ESE 3.9 mph /  6.3 km/h 9.2 mph /  14.8 km/h 74 % 0.00 in /  0 mm
20:51 48.4 °F /  9.1 °C 40.5 °F /  4.7 °C 30.45 in /  1031 hPa SE 5.8 mph /  9.3 km/h 9.2 mph /  14.8 km/h 74 % 0.00 in /  0 mm
20:56 48.3 °F /  9.1 °C 40.7 °F /  4.8 °C 30.45 in /  1031 hPa SE 5.0 mph /  8 km/h 11.5 mph /  18.5 km/h 75 % 0.00 in /  0 mm
21:01 48.2 °F /  9 °C 41.0 °F /  5 °C 30.46 in /  1031.4 hPa SSE 3.2 mph /  5.1 km/h 5.8 mph /  9.3 km/h 76 % 0.00 in /  0 mm
21:06 48.1 °F /  8.9 °C 41.2 °F /  5.1 °C 30.46 in /  1031.4 hPa SSE 4.2 mph /  6.8 km/h 6.9 mph /  11.1 km/h 77 % 0.00 in /  0 mm
21:11 48.0 °F /  8.9 °C 41.1 °F /  5.1 °C 30.46 in /  1031.4 hPa SE 0.5 mph /  0.8 km/h 3.5 mph /  5.6 km/h 77 % 0.00 in /  0 mm
21:16 47.9 °F /  8.8 °C 41.4 °F /  5.2 °C 30.47 in /  1031.7 hPa Calm     78 % 0.00 in /  0 mm
21:22 47.9 °F /  8.8 °C 41.4 °F /  5.2 °C 30.47 in /  1031.7 hPa SE 1.9 mph /  3.1 km/h 6.0 mph /  9.7 km/h 78 % 0.00 in /  0 mm
21:27 47.9 °F /  8.8 °C 41.7 °F /  5.4 °C 30.47 in /  1031.7 hPa ESE 3.4 mph /  5.5 km/h 4.6 mph /  7.4 km/h 79 % 0.00 in /  0 mm
21:32 47.8 °F /  8.8 °C 41.6 °F /  5.3 °C 30.47 in /  1031.7 hPa SE 2.7 mph /  4.3 km/h 4.6 mph /  7.4 km/h 79 % 0.00 in /  0 mm
21:36 47.8 °F /  8.8 °C 41.9 °F /  5.5 °C 30.47 in /  1031.7 hPa SSE 1.8 mph /  2.9 km/h 5.8 mph /  9.3 km/h 80 % 0.00 in /  0 mm
21:41 47.8 °F /  8.8 °C 41.9 °F /  5.5 °C 30.47 in /  1031.7 hPa SE 2.1 mph /  3.4 km/h 4.6 mph /  7.4 km/h 80 % 0.00 in /  0 mm
21:47 47.8 °F /  8.8 °C 41.9 °F /  5.5 °C 30.47 in /  1031.7 hPa SE 1.9 mph /  3.1 km/h 6.0 mph /  9.7 km/h 80 % 0.00 in /  0 mm
21:52 47.9 °F /  8.8 °C 42.0 °F /  5.6 °C 30.48 in /  1032.1 hPa SE 0.9 mph /  1.4 km/h 2.3 mph /  3.7 km/h 80 % 0.00 in /  0 mm
21:53 47.9 °F /  8.8 °C 42.0 °F /  5.6 °C 30.48 in /  1032.1 hPa SE 0.4 mph /  0.6 km/h 2.3 mph /  3.7 km/h 80 % 0.00 in /  0 mm
21:58 47.9 °F /  8.8 °C 42.0 °F /  5.6 °C 30.48 in /  1032.1 hPa SE 2.1 mph /  3.4 km/h 9.2 mph /  14.8 km/h 80 % 0.00 in /  0 mm
22:03 47.9 °F /  8.8 °C 42.0 °F /  5.6 °C 30.49 in /  1032.4 hPa SE 0.4 mph /  0.6 km/h 2.3 mph /  3.7 km/h 80 % 0.00 in /  0 mm
22:08 47.9 °F /  8.8 °C 41.7 °F /  5.4 °C 30.49 in /  1032.4 hPa SE 1.0 mph /  1.6 km/h 3.5 mph /  5.6 km/h 79 % 0.00 in /  0 mm
22:13 47.9 °F /  8.8 °C 41.7 °F /  5.4 °C 30.49 in /  1032.4 hPa ESE 0.7 mph /  1.1 km/h 3.5 mph /  5.6 km/h 79 % 0.00 in /  0 mm
22:18 47.9 °F /  8.8 °C 41.7 °F /  5.4 °C 30.49 in /  1032.4 hPa ESE 1.0 mph /  1.6 km/h 3.5 mph /  5.6 km/h 79 % 0.00 in /  0 mm
22:23 47.9 °F /  8.8 °C 41.7 °F /  5.4 °C 30.49 in /  1032.4 hPa ESE 5.9 mph /  9.5 km/h 10.4 mph /  16.7 km/h 79 % 0.00 in /  0 mm
22:28 47.8 °F /  8.8 °C 41.6 °F /  5.3 °C 30.49 in /  1032.4 hPa SSE 3.0 mph /  4.8 km/h 5.8 mph /  9.3 km/h 79 % 0.00 in /  0 mm
22:33 47.7 °F /  8.7 °C 41.5 °F /  5.3 °C 30.49 in /  1032.4 hPa East 1.2 mph /  1.9 km/h 2.3 mph /  3.7 km/h 79 % 0.00 in /  0 mm
22:38 47.7 °F /  8.7 °C 41.5 °F /  5.3 °C 30.49 in /  1032.4 hPa ESE 1.7 mph /  2.7 km/h 4.6 mph /  7.4 km/h 79 % 0.00 in /  0 mm
22:43 47.6 °F /  8.7 °C 41.4 °F /  5.2 °C 30.49 in /  1032.4 hPa South 1.8 mph /  2.9 km/h 3.5 mph /  5.6 km/h 79 % 0.00 in /  0 mm
22:48 47.5 °F /  8.6 °C 41.3 °F /  5.2 °C 30.49 in /  1032.4 hPa East 1.9 mph /  3.1 km/h 5.8 mph /  9.3 km/h 79 % 0.00 in /  0 mm
22:53 47.3 °F /  8.5 °C 41.1 °F /  5.1 °C 30.49 in /  1032.4 hPa SE 0.3 mph /  0.5 km/h 2.3 mph /  3.7 km/h 79 % 0.00 in /  0 mm
22:58 47.2 °F /  8.4 °C 41.0 °F /  5 °C 30.49 in /  1032.4 hPa SE 1.2 mph /  1.9 km/h 3.5 mph /  5.6 km/h 79 % 0.00 in /  0 mm
23:03 47.0 °F /  8.3 °C 40.8 °F /  4.9 °C 30.49 in /  1032.4 hPa ESE 1.4 mph /  2.3 km/h 3.5 mph /  5.6 km/h 79 % 0.00 in /  0 mm
23:09 46.8 °F /  8.2 °C 40.6 °F /  4.8 °C 30.50 in /  1032.7 hPa ESE 1.4 mph /  2.3 km/h 3.5 mph /  5.6 km/h 79 % 0.00 in /  0 mm
23:14 46.7 °F /  8.2 °C 40.9 °F /  4.9 °C 30.50 in /  1032.7 hPa SE 1.0 mph /  1.6 km/h 2.3 mph /  3.7 km/h 80 % 0.00 in /  0 mm
23:19 46.5 °F /  8.1 °C 40.7 °F /  4.8 °C 30.50 in /  1032.7 hPa SE 0.9 mph /  1.4 km/h 2.3 mph /  3.7 km/h 80 % 0.00 in /  0 mm
23:24 46.4 °F /  8 °C 40.6 °F /  4.8 °C 30.50 in /  1032.7 hPa SSE 0.8 mph /  1.3 km/h 2.3 mph /  3.7 km/h 80 % 0.00 in /  0 mm
23:29 46.3 °F /  7.9 °C 40.5 °F /  4.7 °C 30.50 in /  1032.7 hPa Calm   3.5 mph /  5.6 km/h 80 % 0.00 in /  0 mm
23:34 46.2 °F /  7.9 °C 40.7 °F /  4.8 °C 30.50 in /  1032.7 hPa Calm     81 % 0.00 in /  0 mm
23:39 46.1 °F /  7.8 °C 40.6 °F /  4.8 °C 30.50 in /  1032.7 hPa Calm     81 % 0.00 in /  0 mm
23:44 46.1 °F /  7.8 °C 40.6 °F /  4.8 °C 30.49 in /  1032.4 hPa SSE 0.2 mph /  0.3 km/h 2.3 mph /  3.7 km/h 81 % 0.00 in /  0 mm
23:49 46.0 °F /  7.8 °C 40.8 °F /  4.9 °C 30.49 in /  1032.4 hPa Calm     82 % 0.00 in /  0 mm
23:54 45.9 °F /  7.7 °C 40.7 °F /  4.8 °C 30.49 in /  1032.4 hPa Calm     82 % 0.00 in /  0 mm
23:59 45.8 °F /  7.7 °C 40.6 °F /  4.8 °C 30.49 in /  1032.4 hPa SSE 0.9 mph /  1.4 km/h 2.0 mph /  3.2 km/h 82 % 0.00 in /  0 mm
Crab Meadow Weather
Compliments of Weather Underground - 3 mb

Script developed by  Jim McMurry - jmcmurry@mwt.net Adapted for the template by  Wim van der Kuil - Leuven-Template.eu

Astronomy: The Sun is around 4.5 billion years old.